Portada
METAR-TAF:

METAR-TAF

Aeroports :

Fairford, Anglaterra

latitud: 51-41N, longitud: 001-47W, altitud: 87 m

Observació

L'informe es va fer fa 28 minuts, a les 08:56 UTC
Vent 5 kt del Est
Temperatura 22°C
Humitat 100%
Pressió 1018 hPa
Visibilitat 10 km o més
Cel clar

METAR: EGVA 230856Z 10005KT 9999 CLR 22/22 A3007 RMK AO2A SLP183 60000 T02170217 57016 VISNO RWY27 $

Hora: 10:24 (09:24 UTC)

Pronòstic

L'informe es va fer fa 22 hores i 54 minuts, a les 10:30 UTC
Pronòstic vàlid del 22 a les 12 UTC al 22 a les 17 UTC
Vent 12 kt del Sud-Oest
Visibilitat 10 km o més
Escasses núvols a una alçada de 2400 ft
Cel ennuvolat a una alçada de 3000 ft
Probabilitat 40% :
Temporalment
l' 22 a les 12 UTC al 22 a les 13 UTC
Núvols disperses a una alçada de 2400 ft

TAF: EGVA 221030Z 2212/2217 23012KT 9999 FEW024 BKN030 PROB40 TEMPO 2212/2213 SCT024

Observacions i pronòstics meteorològics de més de 4000 aeroports (METAR i TAF).

Les estacions disponibles són els punts grocs i vermells al mapa.

Posi el ratolí al punt desitjat per veure el nom de l'estació.

Feu clic per veure les observacions i els pronòstics meteorològics.

Per canviar el mapa: feu clic els botons verds amb una creu de color negre per apropar; al botó verd amb un guió per allunyar la imatge; o en les fletxes verdes per a mapes adjacents.


METAR-TAF: